Latest Weather Observations for Williamtown

IDN60901

Issued at 10:02 pm EST Friday 26 August 2016 (issued every 10 minutes, with the page automatically refreshed every 10 minutes)

About weather observations | Map of Sydney area stations | Latest observations for Sydney area | Other Formats
Station Details ID: 061078 Name: WILLIAMTOWN RAAF Lat: -32.79 Lon: 151.84 Height: 9.0 m
Data from the previous 72 hours. | See also: Recent months at Williamtown
Date/Time
EST
Temp
°C
App
Temp
°C
Dew
Point
°C
Rel
Hum
%
Delta-T
°C
Wind Press
QNH
hPa
Press
MSL
hPa
Rain since
9am
mm
Dir  Spd
km/h
Gust
km/h
Spd
kts
Gust
kts
26/10:00pm 8.3 5.2 7.2 93 0.5 W 13 15 7 8 1020.7 1020.7 2.6
26/09:30pm 9.2 6.2 7.9 92 0.6 WSW 13 17 7 9 1020.8 1020.8 2.6
26/09:00pm 9.6 6.0 8.4 92 0.6 WSW 17 20 9 11 1020.6 1020.6 2.6
26/08:30pm 9.5 5.9 8.5 93 0.5 W 17 20 9 11 1020.3 1020.3 2.6
26/08:00pm 9.7 5.8 8.5 92 0.6 W 19 22 10 12 1020.2 1020.2 2.6
26/07:30pm 9.9 6.4 8.7 92 0.6 W 17 20 9 11 1020.4 1020.4 2.4
26/07:00pm 9.9 6.6 8.2 89 0.8 W 15 19 8 10 1020.2 1020.2 2.4
26/06:30pm 10.0 8.4 8.6 91 0.7 WSW 7 11 4 6 1020.2 1020.2 1.6
26/06:00pm 10.4 7.8 7.9 84 1.2 WSW 11 13 6 7 1019.8 1019.8 0.2
26/05:30pm 10.7 7.7 7.6 81 1.5 WSW 13 19 7 10 1019.1 1019.1 0.2
26/05:00pm 11.3 7.2 8.0 80 1.6 WSW 19 28 10 15 1019.0 1019.0 0.2
26/04:30pm 11.8 6.6 7.2 73 2.2 SSW 24 32 13 17 1018.6 1018.6 0.0
26/04:00pm 12.6 8.0 6.5 66 2.9 SSW 20 30 11 16 1018.3 1018.3 0.0
26/03:30pm 14.7 8.4 4.0 48 4.9 SSW 26 35 14 19 1017.8 1017.8 0.0
26/03:00pm 14.3 9.5 4.8 53 4.4 SSW 19 32 10 17 1017.4 1017.4 0.0
26/02:30pm 15.9 11.4 4.3 46 5.4 SW 17 28 9 15 1017.3 1017.3 0.0
26/02:00pm 15.9 11.4 4.0 45 5.5 SSW 17 24 9 13 1017.4 1017.4 0.0
26/01:30pm 16.3 10.4 4.0 44 5.7 SW 24 33 13 18 1017.5 1017.5 0.0
26/01:00pm 15.2 9.3 3.9 47 5.2 SW 24 32 13 17 1017.6 1017.6 0.0
26/12:30pm 15.8 10.6 3.6 44 5.6 SW 20 33 11 18 1018.0 1018.0 0.0
26/12:00pm 15.8 10.3 4.1 45 5.4 SW 22 30 12 16 1018.3 1018.3 0.0
26/11:30am 15.0 11.2 4.1 48 5.0 WSW 13 24 7 13 1018.5 1018.5 0.0
26/11:00am 13.8 9.6 3.9 51 4.5 WSW 15 24 8 13 1018.7 1018.7 0.0
26/10:30am 13.3 8.7 3.7 52 4.3 WSW 17 22 9 12 1018.9 1018.9 0.0
26/10:00am 13.1 8.2 4.0 54 4.1 W 19 26 10 14 1018.8 1018.8 0.0
26/09:30am 11.8 6.6 3.7 57 3.6 WNW 20 28 11 15 1018.8 1018.8 0.0
26/09:00am 10.7 5.1 3.6 61 3.1 WNW 22 30 12 16 1019.0 1019.0 -
26/08:30am 9.2 3.3 3.7 68 2.4 WNW 24 28 13 15 1018.9 1018.9 -
26/08:00am 8.6 3.7 4.0 73 2.0 WNW 19 26 10 14 1018.9 1018.9 -
26/07:30am 7.7 2.1 3.7 76 1.7 WNW 22 30 12 16 1018.4 1018.4 -
26/07:00am 6.7 1.5 3.6 80 1.3 WNW 20 26 11 14 1018.2 1018.2 -
26/06:30am 5.8 1.1 3.4 84 1.0 WNW 17 19 9 10 1017.8 1017.8 -
26/06:00am 5.9 0.7 3.3 83 1.1 WNW 20 26 11 14 1017.3 1017.3 -
26/05:30am 5.8 0.8 3.4 84 1.0 WNW 19 26 10 14 1017.0 1017.0 -
26/05:29am 5.9 0.9 3.5 84 1.0 WNW 19 26 10 14 1016.9 1016.9 -
26/05:28am 8.4 4.6 7.5 94 0.4 WNW 17 24 9 13 1025.8 1025.8 -
26/05:00am 5.8 1.5 3.4 84 1.0 WNW 15 19 8 10 1016.8 1016.8 2.6
26/04:30am 6.4 1.9 4.1 85 1.0 WNW 17 24 9 13 1016.4 1016.4 2.6
26/04:00am 6.7 1.6 4.1 83 1.1 WNW 20 26 11 14 1016.2 1016.2 2.6
26/03:30am 6.5 2.0 4.4 86 0.9 WNW 17 22 9 12 1016.0 1016.0 2.6
26/03:00am 6.8 2.4 4.5 85 1.0 WNW 17 19 9 10 1016.1 1016.1 2.6
26/02:30am 7.1 2.1 4.8 85 1.0 WNW 20 24 11 13 1015.9 1015.9 2.6
26/02:00am 7.0 3.1 5.4 89 0.7 WNW 15 17 8 9 1016.1 1016.1 2.6
26/01:30am 7.4 4.0 5.8 90 0.7 WNW 13 15 7 8 1016.1 1016.1 2.6
26/01:00am 6.9 3.0 5.5 91 0.6 WNW 15 19 8 10 1015.9 1015.9 2.6
26/12:30am 7.3 2.8 6.0 91 0.6 WNW 19 19 10 10 1015.7 1015.7 2.6
26/12:00am 7.0 3.7 6.3 95 0.3 WNW 13 15 7 8 1015.4 1015.4 2.6
 
Date/Time
EST
Temp
°C
App
Temp
°C
Dew
Point
°C
Rel
Hum
%
Delta-T
°C
Wind Press
QNH
hPa
Press
MSL
hPa
Rain since
9am
mm
Dir  Spd
km/h
Gust
km/h
Spd
kts
Gust
kts
25/11:30pm 7.1 4.7 6.9 99 0.1 WNW 9 9 5 5 1015.4 1015.4 2.6
25/11:00pm 7.8 5.5 7.4 97 0.2 WNW 9 11 5 6 1015.3 1015.3 2.6
25/10:30pm 7.4 5.0 7.2 99 0.1 WNW 9 9 5 5 1015.1 1015.1 2.6
25/10:00pm 7.5 5.1 7.1 97 0.2 SSW 9 11 5 6 1015.2 1015.2 2.6
25/09:30pm 8.0 5.7 7.6 97 0.2 NNW 9 13 5 7 1014.9 1014.9 2.6
25/09:00pm 8.2 5.9 7.6 96 0.3 NNW 9 11 5 6 1014.5 1014.5 2.6
25/08:30pm 8.7 6.1 7.9 95 0.4 NW 11 11 6 6 1014.6 1014.6 2.6
25/08:00pm 9.1 7.4 8.5 96 0.3 WNW 7 9 4 5 1014.5 1014.5 2.6
25/07:30pm 9.2 7.7 8.4 95 0.4 W 6 9 3 5 1014.2 1014.2 2.6
25/07:00pm 9.4 7.8 8.6 95 0.4 WNW 7 9 4 5 1013.7 1013.7 2.6
25/06:30pm 10.7 9.1 8.9 89 0.9 SSW 7 11 4 6 1013.4 1013.4 2.6
25/06:00pm 11.1 8.4 8.9 86 1.1 SW 13 20 7 11 1013.4 1013.4 1.8
25/05:30pm 12.1 10.3 9.5 84 1.3 WNW 9 11 5 6 1012.6 1012.6 0.8
25/05:00pm 12.1 10.5 10.2 88 1.0 SW 9 11 5 6 1012.4 1012.4 0.6
25/04:30pm 12.0 9.4 9.4 84 1.3 NNW 13 17 7 9 1011.8 1011.8 0.6
25/04:00pm 14.6 12.3 7.5 62 3.5 SW 9 11 5 6 1011.6 1011.5 0.2
25/03:30pm 15.7 12.4 4.6 47 5.2 SW 11 15 6 8 1011.0 1010.9 0.2
25/03:00pm 15.6 12.6 3.9 45 5.4 WSW 9 11 5 6 1010.8 1010.7 0.2
25/02:30pm 15.2 11.3 3.3 45 5.4 W 13 17 7 9 1010.7 1010.6 0.2
25/02:00pm 15.7 10.6 4.3 46 5.3 WSW 20 30 11 16 1010.4 1010.3 0.2
25/01:30pm 16.5 10.8 4.9 46 5.5 W 24 32 13 17 1010.2 1010.1 0.2
25/01:00pm 16.4 10.3 3.0 40 6.1 WSW 24 35 13 19 1010.2 1010.1 0.2
25/12:30pm 16.0 11.2 5.8 50 4.9 W 20 26 11 14 1010.4 1010.3 0.2
25/12:00pm 15.3 9.5 6.2 54 4.4 WNW 26 35 14 19 1010.6 1010.5 0.2
25/11:30am 13.0 8.8 8.4 73 2.3 WNW 20 28 11 15 1010.8 1010.7 0.2
25/11:00am 12.7 7.7 6.6 66 2.9 WSW 22 30 12 16 1010.9 1010.8 0.0
25/10:30am 12.9 6.3 5.9 62 3.3 WSW 30 41 16 22 1010.7 1010.6 0.0
25/10:00am 13.3 8.3 6.6 64 3.2 W 22 32 12 17 1010.5 1010.4 0.0
25/09:30am 12.4 7.4 6.5 67 2.8 W 22 30 12 16 1010.5 1010.4 0.0
25/09:00am 12.9 7.8 7.6 70 2.6 WNW 24 32 13 17 1010.2 1010.1 8.4
25/08:30am 10.8 6.7 7.9 82 1.4 WNW 19 26 10 14 1010.1 1010.0 8.4
25/08:00am 10.2 6.5 7.9 86 1.1 WNW 17 24 9 13 1010.0 1009.9 8.4
25/07:30am 9.5 5.3 7.4 87 1.0 WNW 19 28 10 15 1009.8 1009.7 8.2
25/07:00am 9.1 4.9 7.6 90 0.7 WNW 19 26 10 14 1009.5 1009.4 8.2
25/06:30am 9.0 5.3 8.0 93 0.5 WNW 17 30 9 16 1009.2 1009.1 8.2
25/06:00am 9.1 5.3 7.6 90 0.7 WNW 17 24 9 13 1008.9 1008.8 7.4
25/05:30am 9.7 5.8 7.2 84 1.2 WNW 17 22 9 12 1008.3 1008.3 6.6
25/05:00am 9.7 5.3 6.7 81 1.4 WNW 19 28 10 15 1007.8 1007.8 6.6
25/04:30am 9.6 5.6 6.8 83 1.3 W 17 20 9 11 1007.4 1007.4 6.6
25/04:00am 9.5 4.2 6.7 83 1.3 WNW 24 30 13 16 1007.0 1007.0 6.6
25/03:30am 9.4 4.1 6.8 84 1.2 WNW 24 30 13 16 1006.8 1006.8 6.6
25/03:00am 10.0 5.5 7.0 81 1.4 W 20 32 11 17 1006.5 1006.5 6.6
25/02:30am 10.7 5.4 6.9 77 1.8 W 24 33 13 18 1006.4 1006.4 6.6
25/02:00am 10.7 5.9 7.4 80 1.6 W 22 30 12 16 1006.4 1006.4 6.6
25/01:30am 10.8 5.5 7.0 77 1.8 WSW 24 33 13 18 1006.1 1006.1 6.6
25/01:00am 10.7 4.3 7.1 78 1.7 W 30 43 16 23 1006.5 1006.5 6.6
25/12:30am 10.6 5.1 7.7 82 1.4 W 26 35 14 19 1006.4 1006.4 6.6
25/12:00am 10.8 5.2 8.6 86 1.1 W 28 35 15 19 1006.1 1006.1 6.6
 
Date/Time
EST
Temp
°C
App
Temp
°C
Dew
Point
°C
Rel
Hum
%
Delta-T
°C
Wind Press
QNH
hPa
Press
MSL
hPa
Rain since
9am
mm
Dir  Spd
km/h
Gust
km/h
Spd
kts
Gust
kts
24/11:30pm 11.3 5.8 9.1 86 1.1 WSW 28 39 15 21 1005.7 1005.7 6.6
24/11:00pm 11.8 7.4 10.4 91 0.7 WSW 24 35 13 19 1005.4 1005.4 6.6
24/10:30pm 12.4 8.9 10.9 90 0.8 W 20 26 11 14 1005.8 1005.8 6.4
24/10:00pm 12.6 10.4 12.0 96 0.3 W 15 22 8 12 1006.1 1006.1 6.2
24/09:49pm 12.7 10.5 12.1 96 0.3 W 15 19 8 10 1006.1 1006.1 6.2
24/09:30pm 12.8 10.7 12.4 97 0.2 WNW 15 19 8 10 1005.9 1005.9 6.2
24/09:25pm 12.9 11.2 12.3 96 0.3 WNW 13 17 7 9 1005.9 1005.9 6.2
24/09:09pm 12.8 10.6 12.2 96 0.3 NW 15 19 8 10 1005.9 1005.9 5.8
24/09:00pm 12.9 10.8 12.3 96 0.3 NW 15 20 8 11 1006.0 1006.0 5.2
24/08:30pm 12.9 11.2 12.3 96 0.3 NW 13 17 7 9 1006.1 1006.1 3.8
24/08:05pm 12.9 11.5 12.2 95 0.4 WNW 11 11 6 6 1005.8 1005.8 2.6
24/08:00pm 12.9 11.5 12.3 96 0.3 WNW 11 13 6 7 1005.8 1005.8 2.2
24/07:30pm 13.1 11.7 12.2 94 0.5 NNW 11 15 6 8 1005.8 1005.8 1.6
24/07:00pm 13.1 11.7 12.2 94 0.5 WNW 11 13 6 7 1005.7 1005.7 1.6
24/06:30pm 13.1 12.1 12.2 94 0.5 NNW 9 13 5 7 1005.4 1005.4 1.6
24/06:00pm 13.4 12.4 12.3 93 0.6 NNW 9 11 5 6 1005.8 1005.8 1.6
24/05:30pm 13.5 12.9 12.4 93 0.6 N 7 9 4 5 1005.9 1005.9 1.6
24/05:00pm 13.6 12.5 11.9 89 0.9 N 9 9 5 5 1006.0 1006.0 1.6
24/04:30pm 13.9 13.1 11.7 86 1.2 NNW 7 9 4 5 1006.6 1006.6 1.6
24/04:00pm 14.4 13.4 12.2 87 1.2 NNW 9 11 5 6 1006.4 1006.4 1.6
24/03:30pm 14.4 14.1 11.4 82 1.6 WNW 4 7 2 4 1006.3 1006.3 1.6
24/03:00pm 14.7 13.8 11.5 81 1.7 W 7 9 4 5 1006.7 1006.7 1.6
24/02:30pm 14.5 13.6 12.5 88 1.1 W 9 11 5 6 1007.4 1007.4 1.6
24/02:00pm 14.0 12.2 12.0 88 1.1 WNW 13 15 7 8 1007.4 1007.4 1.4
24/01:30pm 14.1 13.3 12.8 92 0.7 WNW 9 9 5 5 1008.5 1008.4 1.4
24/01:00pm 14.2 13.0 12.9 92 0.7 WSW 11 13 6 7 1007.8 1007.8 1.4
24/12:43pm 14.0 12.4 12.9 93 0.6 SW 13 15 7 8 1008.1 1008.1 1.2
24/12:30pm 14.1 12.6 13.2 94 0.5 WSW 13 15 7 8 1008.6 1008.5 1.0
24/12:00pm 13.9 13.1 12.8 93 0.6 W 9 11 5 6 1009.3 1009.2 0.6
24/11:30am 13.4 12.0 12.3 93 0.6 W 11 13 6 7 1010.1 1010.0 0.6
24/11:00am 12.9 11.8 12.0 94 0.5 W 9 11 5 6 1010.3 1010.2 0.6
24/10:30am 12.3 10.3 11.4 94 0.5 NW 13 17 7 9 1012.2 1012.2 0.6
24/10:00am 12.1 10.1 11.5 96 0.3 NW 13 15 7 8 1012.8 1012.8 0.6
24/09:30am 12.1 9.7 11.3 95 0.4 NW 15 17 8 9 1013.0 1013.0 0.2
24/09:00am 11.8 9.7 11.2 96 0.3 NW 13 17 7 9 1012.8 1012.8 2.4
24/08:30am 11.7 10.0 11.1 96 0.3 NW 11 15 6 8 1012.7 1012.7 2.2
24/08:00am 11.5 9.3 10.9 96 0.3 NW 13 17 7 9 1012.8 1012.8 2.2
24/07:30am 11.4 9.6 10.8 96 0.3 NW 11 13 6 7 1012.8 1012.8 2.0
24/07:00am 11.4 10.0 10.8 96 0.3 NNW 9 13 5 7 1012.8 1012.8 1.8
24/06:30am 11.4 9.3 11.0 97 0.2 NW 13 17 7 9 1013.1 1013.1 1.6
24/06:00am 11.4 9.6 10.8 96 0.3 NNW 11 11 6 6 1012.9 1012.9 1.0
24/05:30am 11.4 10.3 10.8 96 0.3 NW 7 9 4 5 1012.3 1012.3 1.0
24/05:00am 11.4 10.0 10.8 96 0.3 NW 9 11 5 6 1013.0 1013.0 0.6
24/04:30am 11.5 10.0 10.7 95 0.4 NNW 9 11 5 6 1013.1 1013.1 0.2
24/04:00am 11.7 10.2 10.7 94 0.5 WNW 9 11 5 6 1013.3 1013.3 0.0
24/03:30am 11.7 10.2 10.5 92 0.6 NW 9 11 5 6 1013.3 1013.3 0.0
24/03:00am 11.9 10.3 10.1 89 0.9 WNW 9 11 5 6 1014.0 1014.0 0.0
24/02:30am 12.0 10.3 10.0 87 1.0 NW 9 11 5 6 1013.7 1013.7 0.0
24/02:00am 12.0 10.0 10.0 87 1.0 NW 11 13 6 7 1014.5 1014.5 0.0
24/01:30am 12.0 10.8 10.2 89 0.9 W 7 11 4 6 1013.9 1013.9 0.0
24/01:00am 12.1 10.1 10.2 88 1.0 SW 11 15 6 8 1013.7 1013.7 0.0
24/12:30am 11.8 10.1 10.0 89 0.9 WSW 9 11 5 6 1014.6 1014.6 0.0
24/12:00am 12.0 10.4 10.2 89 0.9 WNW 9 11 5 6 1014.8 1014.8 0.0
 
Date/Time
EST
Temp
°C
App
Temp
°C
Dew
Point
°C
Rel
Hum
%
Delta-T
°C
Wind Press
QNH
hPa
Press
MSL
hPa
Rain since
9am
mm
Dir  Spd
km/h
Gust
km/h
Spd
kts
Gust
kts
23/11:30pm 12.1 10.9 10.4 89 0.9 W 7 9 4 5 1015.0 1015.0 0.0
23/11:00pm 12.4 11.5 10.5 88 1.0 W 6 7 3 4 1015.3 1015.3 0.0
23/10:30pm 12.5 11.4 10.6 88 1.0 W 7 11 4 6 1015.5 1015.5 0.0

Latest Capital City Observations: Canberra | Sydney | Melbourne | Brisbane | Adelaide | Perth | Hobart | Darwin

Other Formats:

Comma delimited format used in spreadsheet applications
http://www.bom.gov.au/fwo/IDN60901/IDN60901.94776.axf

JavaScript Object Notation format (JSON) in row-major order
http://www.bom.gov.au/fwo/IDN60901/IDN60901.94776.json